Time;durP1;ratioP1;P1;durP2;ratioP2;P2;SDS_P1;SDS_P2;PMS_P1;PMS_P2;Temp;Humidity;BMP_temperature;BMP_pressure;BME280_temperature;BME280_humidity;BME280_pressure;Samples;Min_cycle;Max_cycle;Signal;HPM_P1;HPM_P2
2022/06/07 00:00:19;;;;;;;;;;;;;;;27.30;54.46;98576.78;2083897;28;19928;-56
2022/06/07 00:01:23;;;;;;;;;;;;;;;27.29;54.29;98580.56;2084935;28;20394;-55
2022/06/07 00:02:25;;;;;;;;;;;;;;;27.30;54.30;98576.78;2082862;28;19928;-54
2022/06/07 00:03:27;;;;;;;;;;;;;;;27.31;54.19;98578.41;2081061;28;19975;-52
2022/06/07 00:04:28;;;;;;;;;;;;;;;27.31;54.21;98583.84;2083936;28;19932;-54
2022/06/07 00:05:29;;;;;;;;;;;;;;;27.30;54.41;98582.22;2084833;28;20391;-51
2022/06/07 00:06:30;;;;;;;;;;;;;;;27.30;54.40;98579.50;2079925;28;21823;-50
2022/06/07 00:07:31;;;;;;;;;;;;;;;27.29;54.31;98580.56;2084353;28;19929;-53
2022/06/07 00:08:33;;;;;;;;;;;;;;;27.30;54.81;98582.22;2082790;28;19924;-53
2022/06/07 00:09:34;;;;;;;;;;;;;;;27.28;54.45;98584.38;2079623;28;19936;-54
2022/06/07 00:10:35;;;;;;;;;;;;;;;27.32;54.45;98587.38;2086222;28;20338;-53
2022/06/07 00:11:37;;;;;;;;;;;;;;;27.31;54.92;98583.03;2085871;28;20550;-53
2022/06/07 00:12:38;;;;;;;;;;;;;;;27.31;54.65;98578.41;2081932;28;20425;-55
2022/06/07 00:13:40;;;;;;;;;;;;;;;27.29;54.96;98574.28;2081109;28;20011;-52
2022/06/07 00:14:40;;;;;;;;;;;;;;;27.31;54.30;98572.13;2081913;28;19932;-57
2022/06/07 00:15:42;;;;;;;;;;;;;;;27.31;54.42;98566.69;2086780;28;20007;-53
2022/06/07 00:16:44;;;;;;;;;;;;;;;27.32;54.51;98568.31;2083248;28;19933;-49
2022/06/07 00:17:46;;;;;;;;;;;;;;;27.30;54.51;98571.31;2083157;28;20292;-51
2022/06/07 00:18:47;;;;;;;;;;;;;;;27.31;54.57;98572.94;2083572;28;20011;-55
2022/06/07 00:19:48;;;;;;;;;;;;;;;27.28;54.75;98567.22;2087499;28;20012;-53
2022/06/07 00:20:50;;;;;;;;;;;;;;;27.28;54.51;98573.47;2085868;28;20275;-51
2022/06/07 00:21:51;;;;;;;;;;;;;;;27.29;54.75;98568.84;2087321;28;19947;-52
2022/06/07 00:22:52;;;;;;;;;;;;;;;27.28;54.45;98565.31;2078625;28;22933;-53
2022/06/07 00:23:54;;;;;;;;;;;;;;;27.28;54.32;98568.03;2088570;28;21125;-53
2022/06/07 00:24:54;;;;;;;;;;;;;;;27.26;54.77;98566.66;2082846;28;20918;-50
2022/06/07 00:25:56;;;;;;;;;;;;;;;27.27;54.58;98566.38;2087101;28;19935;-50
2022/06/07 00:26:57;;;;;;;;;;;;;;;27.27;54.76;98562.84;2081505;28;19935;-54
2022/06/07 00:27:59;;;;;;;;;;;;;;;27.27;54.55;98565.56;2081938;28;20552;-52
2022/06/07 00:29:00;;;;;;;;;;;;;;;27.27;54.43;98577.25;2084832;28;19935;-54
2022/06/07 00:30:03;;;;;;;;;;;;;;;27.29;54.66;98572.38;2084794;28;19929;-54
2022/06/07 00:31:03;;;;;;;;;;;;;;;27.28;54.66;98562.59;2078155;28;20586;-53
2022/06/07 00:32:08;;;;;;;;;;;;;;;27.28;54.61;98562.59;2081797;28;19939;-51
2022/06/07 00:33:09;;;;;;;;;;;;;;;27.27;54.69;98566.38;2085041;28;19940;-52
2022/06/07 00:34:11;;;;;;;;;;;;;;;27.27;54.78;98557.38;2086887;28;20875;-52
2022/06/07 00:35:12;;;;;;;;;;;;;;;27.27;54.75;98558.19;2085698;28;19929;-55
2022/06/07 00:36:13;;;;;;;;;;;;;;;27.28;54.75;98557.16;2084205;28;19977;-53
2022/06/07 00:37:14;;;;;;;;;;;;;;;27.30;54.64;98560.44;2082713;28;19928;-50
2022/06/07 00:38:16;;;;;;;;;;;;;;;27.27;54.60;98558.19;2085047;28;19925;-54
2022/06/07 00:39:16;;;;;;;;;;;;;;;27.26;54.56;98548.41;2081641;28;19932;-53
2022/06/07 00:40:18;;;;;;;;;;;;;;;27.27;54.33;98551.94;2082939;28;20540;-54
2022/06/07 00:41:18;;;;;;;;;;;;;;;27.28;54.54;98550.88;2079897;28;19925;-52
2022/06/07 00:42:20;;;;;;;;;;;;;;;27.29;54.35;98553.31;2085320;28;19932;-52
2022/06/07 00:43:23;;;;;;;;;;;;;;;27.29;54.40;98558.78;2084013;28;19933;-54
2022/06/07 00:44:30;;;;;;;;;;;;;;;27.29;54.33;98552.50;2082318;28;19929;-54
2022/06/07 00:45:32;;;;;;;;;;;;;;;27.26;54.66;98556.56;2083307;28;20018;-49
2022/06/07 00:46:33;;;;;;;;;;;;;;;27.26;54.47;98551.13;2082223;28;19932;-53
2022/06/07 00:47:36;;;;;;;;;;;;;;;27.27;54.81;98547.31;2084871;28;20024;-56
2022/06/07 00:48:37;;;;;;;;;;;;;;;27.28;54.31;98553.59;2082774;28;20023;-54
2022/06/07 00:49:41;;;;;;;;;;;;;;;27.27;54.52;98544.59;2079198;28;19940;-55
2022/06/07 00:50:46;;;;;;;;;;;;;;;27.27;54.78;98549.22;2082066;28;19932;-53
2022/06/07 00:51:46;;;;;;;;;;;;;;;27.26;54.59;98542.16;2084912;28;19932;-51
2022/06/07 00:52:48;;;;;;;;;;;;;;;27.25;54.45;98544.06;2080565;28;19928;-50
2022/06/07 00:53:49;;;;;;;;;;;;;;;27.24;54.92;98545.13;2083395;28;19932;-54
2022/06/07 00:54:50;;;;;;;;;;;;;;;27.24;54.62;98547.84;2084280;28;20692;-50
2022/06/07 00:55:51;;;;;;;;;;;;;;;27.25;54.64;98546.78;2085115;28;19933;-52
2022/06/07 00:56:53;;;;;;;;;;;;;;;27.23;55.03;98545.41;2081715;28;19932;-56
2022/06/07 00:57:54;;;;;;;;;;;;;;;27.24;54.68;98545.13;2081285;28;20425;-55
2022/06/07 00:58:55;;;;;;;;;;;;;;;27.24;54.78;98544.31;2083070;28;19960;-52
2022/06/07 00:59:56;;;;;;;;;;;;;;;27.24;54.85;98547.03;2083566;28;19924;-51
2022/06/07 01:00:58;;;;;;;;;;;;;;;27.24;54.62;98542.41;2078913;28;21012;-54
2022/06/07 01:01:58;;;;;;;;;;;;;;;27.25;54.76;98544.06;2084015;28;19925;-53
2022/06/07 01:03:01;;;;;;;;;;;;;;;27.27;54.39;98543.78;2084306;28;19931;-52
2022/06/07 01:04:02;;;;;;;;;;;;;;;27.28;54.62;98542.72;2086778;28;19932;-52
2022/06/07 01:05:04;;;;;;;;;;;;;;;27.27;54.58;98539.13;2078751;28;19934;-54
2022/06/07 01:11:18;;;;;;;;;;;;;;;27.25;54.63;98533.16;2077684;28;20000;-52
2022/06/07 01:12:18;;;;;;;;;;;;;;;27.25;54.43;98540.50;2083698;28;19925;-51
2022/06/07 01:13:22;;;;;;;;;;;;;;;27.26;54.76;98533.97;2084237;28;19972;-53
2022/06/07 01:14:22;;;;;;;;;;;;;;;27.27;54.47;98536.41;2082194;28;19928;-53
2022/06/07 01:15:24;;;;;;;;;;;;;;;27.24;54.84;98530.69;2083112;28;22140;-55
2022/06/07 01:16:26;;;;;;;;;;;;;;;27.24;54.58;98538.84;2082319;28;19928;-54
2022/06/07 01:17:26;;;;;;;;;;;;;;;27.23;54.79;98543.50;2080566;28;19925;-56
2022/06/07 01:18:31;;;;;;;;;;;;;;;27.23;54.66;98535.31;2082409;28;20013;-56
2022/06/07 01:19:31;;;;;;;;;;;;;;;27.22;54.62;98533.69;2085951;28;19929;-55
2022/06/07 01:20:33;;;;;;;;;;;;;;;27.24;54.65;98531.50;2083629;28;19943;-54
2022/06/07 01:21:36;;;;;;;;;;;;;;;27.25;54.62;98524.19;2087313;28;19924;-54
2022/06/07 01:22:38;;;;;;;;;;;;;;;27.25;54.42;98524.19;2083591;28;19925;-53
2022/06/07 01:23:39;;;;;;;;;;;;;;;27.24;54.85;98527.97;2083992;28;19931;-53
2022/06/07 01:24:41;;;;;;;;;;;;;;;27.23;54.53;98527.16;2084336;28;19968;-54
2022/06/07 01:25:42;;;;;;;;;;;;;;;27.23;54.57;98521.69;2085467;28;19936;-52
2022/06/07 01:26:43;;;;;;;;;;;;;;;27.24;54.53;98517.88;2083572;28;19924;-54
2022/06/07 01:27:44;;;;;;;;;;;;;;;27.24;54.42;98526.06;2086100;28;19928;-54
2022/06/07 01:28:46;;;;;;;;;;;;;;;27.24;54.56;98523.34;2081148;28;20437;-54
2022/06/07 01:29:46;;;;;;;;;;;;;;;27.24;54.93;98512.44;2083251;28;19925;-55
2022/06/07 01:30:48;;;;;;;;;;;;;;;27.24;54.55;98523.34;2086561;28;19939;-52
2022/06/07 01:31:48;;;;;;;;;;;;;;;27.25;54.43;98518.72;2086281;28;19925;-54
2022/06/07 01:32:50;;;;;;;;;;;;;;;27.24;54.56;98520.63;2081330;28;20018;-52
2022/06/07 01:33:51;;;;;;;;;;;;;;;27.22;54.77;98520.06;2085390;28;19925;-52
2022/06/07 01:34:53;;;;;;;;;;;;;;;27.23;54.84;98529.06;2084205;28;20378;-52
2022/06/07 01:35:59;;;;;;;;;;;;;;;27.24;54.83;98523.34;2088699;28;19933;-54
2022/06/07 01:37:02;;;;;;;;;;;;;;;27.23;54.69;98521.69;2083827;28;19928;-54
2022/06/07 01:38:04;;;;;;;;;;;;;;;27.23;54.47;98515.44;2084787;28;19967;-53
2022/06/07 01:41:55;;;;;;;;;;;;;;;27.21;54.45;98512.97;2085009;28;20398;-54
2022/06/07 01:42:56;;;;;;;;;;;;;;;27.20;54.69;98518.69;2083832;28;19925;-55
2022/06/07 01:43:59;;;;;;;;;;;;;;;27.19;54.58;98517.84;2085543;28;20393;-54
2022/06/07 01:45:00;;;;;;;;;;;;;;;27.21;54.81;98521.13;2083651;28;19936;-53
2022/06/07 01:46:03;;;;;;;;;;;;;;;27.21;54.63;98523.88;2080598;28;20275;-54
2022/06/07 01:47:07;;;;;;;;;;;;;;;27.20;54.53;98519.50;2089659;28;20430;-52
2022/06/07 01:48:08;;;;;;;;;;;;;;;27.16;54.69;98511.06;2086677;28;20521;-55
2022/06/07 01:49:09;;;;;;;;;;;;;;;27.20;54.57;98511.34;2082709;28;19939;-54
2022/06/07 01:50:11;;;;;;;;;;;;;;;27.21;54.64;98506.72;2083404;28;19939;-54
2022/06/07 01:51:12;;;;;;;;;;;;;;;27.19;54.92;98504.25;2083832;28;19933;-54
2022/06/07 01:52:16;;;;;;;;;;;;;;;27.21;55.00;98502.06;2081364;28;21637;-51
2022/06/07 01:53:18;;;;;;;;;;;;;;;27.20;54.71;98500.44;2084290;28;19925;-53
2022/06/07 01:54:20;;;;;;;;;;;;;;;27.19;54.74;98496.06;2086126;28;19928;-52
2022/06/07 01:55:22;;;;;;;;;;;;;;;27.19;54.65;98504.25;2086415;28;19925;-55
2022/06/07 01:56:22;;;;;;;;;;;;;;;27.20;54.58;98496.91;2081938;28;19929;-54
2022/06/07 01:57:24;;;;;;;;;;;;;;;27.20;54.75;98500.44;2086587;28;20273;-51
2022/06/07 01:58:25;;;;;;;;;;;;;;;27.18;54.59;98499.88;2089778;28;19935;-53
2022/06/07 01:59:27;;;;;;;;;;;;;;;27.17;54.50;98490.91;2082090;28;20027;-53
2022/06/07 02:00:29;;;;;;;;;;;;;;;27.18;54.76;98489.00;2082247;28;19933;-54
2022/06/07 02:01:29;;;;;;;;;;;;;;;27.17;54.70;98485.47;2080996;28;19994;-53
2022/06/07 02:02:31;;;;;;;;;;;;;;;27.17;54.59;98480.00;2084046;28;19932;-53
2022/06/07 02:03:32;;;;;;;;;;;;;;;27.18;54.67;98487.09;2082312;28;20418;-52
2022/06/07 02:04:33;;;;;;;;;;;;;;;27.17;54.66;98482.75;2084597;28;19933;-55
2022/06/07 02:05:35;;;;;;;;;;;;;;;27.17;54.67;98476.47;2083564;28;19928;-52
2022/06/07 02:06:35;;;;;;;;;;;;;;;27.16;55.01;98478.38;2084811;28;19928;-54
2022/06/07 02:07:38;;;;;;;;;;;;;;;27.16;54.68;98475.66;2085495;28;20464;-52
2022/06/07 02:08:40;;;;;;;;;;;;;;;27.16;54.93;98478.38;2085968;28;19924;-50
2022/06/07 02:09:42;;;;;;;;;;;;;;;27.17;54.51;98476.47;2087406;28;19925;-55
2022/06/07 02:10:42;;;;;;;;;;;;;;;27.16;54.98;98472.09;2082220;28;19925;-55
2022/06/07 02:11:44;;;;;;;;;;;;;;;27.18;54.97;98478.09;2088888;28;19928;-52
2022/06/07 02:12:45;;;;;;;;;;;;;;;27.17;54.94;98473.75;2087723;28;20409;-52
2022/06/07 02:13:47;;;;;;;;;;;;;;;27.15;55.05;98467.72;2082391;28;19924;-52
2022/06/07 02:14:49;;;;;;;;;;;;;;;27.15;54.60;98473.97;2080994;28;19924;-53
2022/06/07 02:15:49;;;;;;;;;;;;;;;27.17;54.77;98471.03;2084441;28;19932;-55
2022/06/07 02:16:51;;;;;;;;;;;;;;;27.16;54.63;98472.09;2080963;28;19975;-54
2022/06/07 02:17:53;;;;;;;;;;;;;;;27.16;54.93;98466.66;2085220;28;20379;-53
2022/06/07 02:18:53;;;;;;;;;;;;;;;27.15;54.95;98465.00;2087797;28;20548;-53
2022/06/07 02:19:55;;;;;;;;;;;;;;;27.14;55.08;98479.69;2082756;28;19968;-54
2022/06/07 02:20:57;;;;;;;;;;;;;;;27.13;54.74;98469.88;2085095;28;19924;-54
2022/06/07 02:21:59;;;;;;;;;;;;;;;27.14;54.65;98472.34;2081666;28;19936;-54
2022/06/07 02:23:02;;;;;;;;;;;;;;;27.13;54.76;98472.59;2082798;28;19928;-55
2022/06/07 02:24:05;;;;;;;;;;;;;;;27.13;54.93;98478.03;2084821;28;20578;-53
2022/06/07 02:25:06;;;;;;;;;;;;;;;27.12;54.82;98465.53;2084299;28;20023;-52
2022/06/07 02:26:12;;;;;;;;;;;;;;;27.13;54.86;98467.97;2079959;28;19963;-55
2022/06/07 02:27:16;;;;;;;;;;;;;;;27.15;54.68;98470.44;2083879;28;20508;-55
2022/06/07 02:28:18;;;;;;;;;;;;;;;27.11;54.85;98467.44;2082503;28;19932;-55
2022/06/07 02:29:21;;;;;;;;;;;;;;;27.12;55.07;98463.63;2083236;28;20363;-56
2022/06/07 02:30:21;;;;;;;;;;;;;;;27.10;55.12;98467.69;2084750;28;20372;-51
2022/06/07 02:31:24;;;;;;;;;;;;;;;27.12;54.94;98460.06;2082480;28;19925;-54
2022/06/07 02:32:29;;;;;;;;;;;;;;;27.11;54.83;98459.25;2085801;28;19970;-53
2022/06/07 02:33:30;;;;;;;;;;;;;;;27.12;55.17;98458.16;2085066;28;20995;-52
2022/06/07 02:34:32;;;;;;;;;;;;;;;27.15;55.08;98465.00;2082343;28;19928;-56
2022/06/07 02:35:34;;;;;;;;;;;;;;;27.12;54.73;98455.44;2083443;28;19932;-58
2022/06/07 02:36:37;;;;;;;;;;;;;;;27.12;54.74;98460.88;2081873;28;19961;-54
2022/06/07 02:37:38;;;;;;;;;;;;;;;27.12;55.17;98460.06;2083534;28;19932;-54
2022/06/07 02:38:42;;;;;;;;;;;;;;;27.13;54.79;98464.44;2080256;28;20015;-55
2022/06/07 02:39:43;;;;;;;;;;;;;;;27.13;54.84;98456.25;2084427;28;19928;-56
2022/06/07 02:40:46;;;;;;;;;;;;;;;27.12;55.16;98455.44;2084881;28;20368;-55
2022/06/07 02:41:50;;;;;;;;;;;;;;;27.12;55.00;98454.63;2080834;28;19946;-56
2022/06/07 02:42:50;;;;;;;;;;;;;;;27.11;54.83;98459.25;2082745;28;19937;-55
2022/06/07 02:43:52;;;;;;;;;;;;;;;27.09;55.29;98455.97;2082763;28;19933;-57
2022/06/07 02:44:53;;;;;;;;;;;;;;;27.08;55.21;98457.06;2082241;28;21006;-51
2022/06/07 02:45:54;;;;;;;;;;;;;;;27.10;55.03;98459.50;2087949;28;19924;-53
2022/06/07 02:46:55;;;;;;;;;;;;;;;27.09;55.07;98464.16;2083326;28;19991;-56
2022/06/07 02:47:57;;;;;;;;;;;;;;;27.09;55.06;98460.59;2084136;28;20284;-55
2022/06/07 02:48:57;;;;;;;;;;;;;;;27.09;54.91;98455.97;2084209;28;19925;-56
2022/06/07 02:49:59;;;;;;;;;;;;;;;27.10;55.05;98454.06;2082695;28;19964;-53
2022/06/07 02:50:59;;;;;;;;;;;;;;;27.10;55.33;98451.34;2078642;28;19932;-56
2022/06/07 02:52:01;;;;;;;;;;;;;;;27.09;55.02;98455.16;2090206;28;20382;-54
2022/06/07 02:53:02;;;;;;;;;;;;;;;27.10;55.27;98459.50;2084241;28;19933;-55
2022/06/07 02:54:05;;;;;;;;;;;;;;;27.11;54.83;98459.25;2080921;28;20130;-52
2022/06/07 02:55:06;;;;;;;;;;;;;;;27.09;54.88;98452.44;2079835;28;19928;-54
2022/06/07 02:56:07;;;;;;;;;;;;;;;27.09;55.04;98460.59;2083140;28;19933;-52
2022/06/07 02:57:08;;;;;;;;;;;;;;;27.07;54.99;98454.59;2081344;28;20377;-53
2022/06/07 02:58:09;;;;;;;;;;;;;;;27.08;55.07;98458.94;2082718;28;20039;-55
2022/06/07 02:59:10;;;;;;;;;;;;;;;27.07;55.02;98454.59;2080043;28;19979;-53
2022/06/07 03:00:13;;;;;;;;;;;;;;;27.08;54.90;98459.78;2086121;28;20394;-54
2022/06/07 03:01:13;;;;;;;;;;;;;;;27.09;54.82;98457.88;2083073;28;20055;-51
2022/06/07 03:02:16;;;;;;;;;;;;;;;27.09;54.97;98449.72;2079323;28;19925;-54
2022/06/07 03:03:16;;;;;;;;;;;;;;;27.07;54.83;98447.25;2080828;28;20451;-54
2022/06/07 03:04:18;;;;;;;;;;;;;;;27.09;54.96;98455.16;2079860;28;20020;-49
2022/06/07 03:05:19;;;;;;;;;;;;;;;27.08;55.28;98458.94;2082737;28;20414;-54
2022/06/07 03:06:20;;;;;;;;;;;;;;;27.08;54.97;98456.22;2080092;28;19929;-52
2022/06/07 03:07:21;;;;;;;;;;;;;;;27.08;55.27;98456.22;2081654;28;19935;-53
2022/06/07 03:08:24;;;;;;;;;;;;;;;27.05;55.44;98457.59;2083027;28;20599;-52
2022/06/07 03:09:26;;;;;;;;;;;;;;;27.07;55.33;98462.75;2083781;28;19944;-54
2022/06/07 03:10:27;;;;;;;;;;;;;;;27.07;55.43;98468.22;2081399;28;19960;-55
2022/06/07 03:11:28;;;;;;;;;;;;;;;27.08;54.89;98467.13;2083782;28;19943;-54
2022/06/07 03:12:30;;;;;;;;;;;;;;;27.06;55.30;98461.13;2080761;28;20063;-54
2022/06/07 03:13:31;;;;;;;;;;;;;;;27.06;55.13;98458.41;2082542;28;19933;-54
2022/06/07 03:14:33;;;;;;;;;;;;;;;27.06;54.90;98461.94;2081268;28;19928;-53
2022/06/07 03:15:33;;;;;;;;;;;;;;;27.06;55.35;98461.13;2083308;28;19972;-53
2022/06/07 03:16:35;;;;;;;;;;;;;;;27.05;55.29;98464.94;2080962;28;19939;-56
2022/06/07 03:17:36;;;;;;;;;;;;;;;27.04;55.03;98466.03;2083640;28;20478;-52
2022/06/07 03:18:38;;;;;;;;;;;;;;;27.05;55.22;98464.94;2087590;28;19933;-55
2022/06/07 03:19:38;;;;;;;;;;;;;;;27.04;55.41;98460.56;2088105;28;19936;-52
2022/06/07 03:20:41;;;;;;;;;;;;;;;27.03;55.44;98459.75;2083097;28;20397;-53
2022/06/07 03:21:42;;;;;;;;;;;;;;;27.01;55.29;98456.47;2081655;28;19935;-54
2022/06/07 03:22:43;;;;;;;;;;;;;;;27.03;54.95;98464.38;2083894;28;19928;-55
2022/06/07 03:23:45;;;;;;;;;;;;;;;27.03;54.87;98459.75;2085329;28;19925;-54
2022/06/07 03:24:46;;;;;;;;;;;;;;;27.03;55.10;98462.47;2087801;28;20431;-51
2022/06/07 03:25:48;;;;;;;;;;;;;;;27.04;55.23;98460.56;2080692;28;19932;-54
2022/06/07 03:26:48;;;;;;;;;;;;;;;27.03;55.37;98464.38;2082822;28;22097;-54
2022/06/07 03:27:50;;;;;;;;;;;;;;;27.04;54.94;98460.56;2080174;28;19936;-55
2022/06/07 03:28:51;;;;;;;;;;;;;;;27.03;54.96;98467.13;2084807;28;19928;-54
2022/06/07 03:29:52;;;;;;;;;;;;;;;27.03;55.07;98459.75;2081678;28;19929;-55
2022/06/07 03:30:53;;;;;;;;;;;;;;;27.01;54.98;98458.38;2084064;28;19932;-52
2022/06/07 03:31:54;;;;;;;;;;;;;;;27.01;55.39;98455.66;2089521;28;19975;-54
2022/06/07 03:32:55;;;;;;;;;;;;;;;27.02;55.00;98446.41;2081512;28;19932;-55
2022/06/07 03:33:57;;;;;;;;;;;;;;;27.03;55.27;98445.34;2086920;28;20345;-55
2022/06/07 03:34:57;;;;;;;;;;;;;;;27.02;54.87;98443.69;2084455;28;19936;-55
2022/06/07 03:36:03;;;;;;;;;;;;;;;27.02;55.35;98449.13;2087284;28;20048;-56
2022/06/07 03:37:05;;;;;;;;;;;;;;;27.02;54.97;98447.22;2080743;28;19929;-53
2022/06/07 03:38:05;;;;;;;;;;;;;;;27.02;55.26;98446.41;2080900;28;19933;-53
2022/06/07 03:39:09;;;;;;;;;;;;;;;27.01;55.04;98453.75;2083421;28;19932;-49
2022/06/07 03:40:12;;;;;;;;;;;;;;;27.01;55.01;98450.22;2089691;28;19982;-55
2022/06/07 03:41:16;;;;;;;;;;;;;;;27.02;55.31;98454.56;2081696;28;20554;-53
2022/06/07 03:42:17;;;;;;;;;;;;;;;27.02;54.81;98454.56;2083439;28;19929;-55
2022/06/07 03:43:19;;;;;;;;;;;;;;;26.96;55.07;98451.81;2081773;28;19925;-56
2022/06/07 03:44:19;;;;;;;;;;;;;;;27.00;54.97;98454.03;2078435;28;20347;-55
2022/06/07 03:45:21;;;;;;;;;;;;;;;27.00;55.25;98457.56;2078448;28;19976;-52
2022/06/07 03:46:23;;;;;;;;;;;;;;;26.98;55.35;98448.03;2088945;28;19932;-51
2022/06/07 03:47:24;;;;;;;;;;;;;;;27.00;54.92;98456.75;2084756;28;20414;-55
2022/06/07 03:48:25;;;;;;;;;;;;;;;27.00;55.03;98449.41;2084704;28;19932;-52
2022/06/07 03:49:26;;;;;;;;;;;;;;;26.99;55.26;98447.75;2083644;28;19939;-54
2022/06/07 03:50:27;;;;;;;;;;;;;;;27.02;55.03;98449.13;2081165;28;19992;-54
2022/06/07 03:51:30;;;;;;;;;;;;;;;27.00;54.94;98454.84;2085731;28;20952;-53
2022/06/07 03:52:31;;;;;;;;;;;;;;;26.99;55.23;98447.75;2086357;28;19933;-53
2022/06/07 03:53:32;;;;;;;;;;;;;;;27.01;54.87;98445.59;2085053;28;20362;-54
2022/06/07 03:54:33;;;;;;;;;;;;;;;27.01;55.16;98442.06;2080404;28;20324;-58
2022/06/07 03:55:36;;;;;;;;;;;;;;;26.99;55.06;98444.22;2087661;28;19932;-55
2022/06/07 03:56:36;;;;;;;;;;;;;;;26.99;54.83;98445.03;2085879;28;19925;-54
2022/06/07 03:57:38;;;;;;;;;;;;;;;26.99;54.93;98449.66;2081940;28;20487;-55
2022/06/07 03:58:40;;;;;;;;;;;;;;;26.96;54.95;98440.09;2082099;28;19974;-53
2022/06/07 03:59:40;;;;;;;;;;;;;;;26.99;54.99;98444.22;2082315;28;20195;-52
2022/06/07 04:00:43;;;;;;;;;;;;;;;26.98;54.81;98442.59;2085346;28;20464;-52
2022/06/07 04:01:43;;;;;;;;;;;;;;;26.96;55.27;98440.91;2083891;28;20302;-53
2022/06/07 04:02:45;;;;;;;;;;;;;;;26.99;54.91;98433.31;2084320;28;19958;-53
2022/06/07 04:03:47;;;;;;;;;;;;;;;26.99;55.28;98433.31;2081056;28;19932;-54
2022/06/07 04:04:48;;;;;;;;;;;;;;;26.96;55.08;98434.66;2087455;28;19954;-54
2022/06/07 04:05:49;;;;;;;;;;;;;;;26.99;55.00;98441.50;2082979;28;19925;-54
2022/06/07 04:08:13;;;;;;;;;;;;;;;26.97;55.01;98436.31;2087053;28;19929;-53
2022/06/07 04:09:15;;;;;;;;;;;;;;;26.96;55.07;98435.47;2080943;28;19940;-52
2022/06/07 04:10:15;;;;;;;;;;;;;;;26.96;55.15;98434.66;2084716;28;19929;-53
2022/06/07 04:11:20;;;;;;;;;;;;;;;26.97;55.17;98430.88;2083547;28;20594;-53
2022/06/07 04:12:21;;;;;;;;;;;;;;;26.95;54.82;98428.41;2084538;28;19929;-53
2022/06/07 04:13:23;;;;;;;;;;;;;;;26.96;54.88;98430.03;2079227;28;19932;-52
2022/06/07 04:14:24;;;;;;;;;;;;;;;26.96;54.65;98429.22;2081879;28;19940;-50
2022/06/07 04:15:26;;;;;;;;;;;;;;;26.98;55.15;98428.97;2085755;28;20957;-51
2022/06/07 04:16:28;;;;;;;;;;;;;;;26.97;54.90;98430.88;2084984;28;19925;-56
2022/06/07 04:17:29;;;;;;;;;;;;;;;26.95;55.02;98431.13;2084907;28;19925;-53
2022/06/07 04:18:30;;;;;;;;;;;;;;;26.94;54.62;98432.22;2083217;28;19925;-53
2022/06/07 04:19:32;;;;;;;;;;;;;;;26.95;54.73;98430.31;2078452;28;19932;-50
2022/06/07 04:20:34;;;;;;;;;;;;;;;26.94;54.63;98432.22;2086033;28;20600;-53
2022/06/07 04:21:36;;;;;;;;;;;;;;;26.95;55.13;98439.28;2076435;28;22189;-55
2022/06/07 04:22:36;;;;;;;;;;;;;;;26.96;54.52;98434.66;2084020;28;19932;-53
2022/06/07 04:23:38;;;;;;;;;;;;;;;26.95;55.08;98433.84;2084498;28;19936;-53
2022/06/07 04:24:39;;;;;;;;;;;;;;;26.94;55.03;98432.22;2082618;28;20406;-53
2022/06/07 04:25:41;;;;;;;;;;;;;;;26.93;55.11;98430.56;2083678;28;19935;-56
2022/06/07 04:26:43;;;;;;;;;;;;;;;26.92;54.87;98428.94;2082319;28;19935;-54
2022/06/07 04:27:44;;;;;;;;;;;;;;;26.93;55.15;98427.84;2082950;28;19968;-53
2022/06/07 04:28:46;;;;;;;;;;;;;;;26.92;54.79;98428.13;2080330;28;20290;-53
2022/06/07 04:29:47;;;;;;;;;;;;;;;26.91;55.18;98431.91;2088930;28;19936;-53
2022/06/07 04:30:49;;;;;;;;;;;;;;;26.92;54.84;98433.56;2081551;28;19967;-54
2022/06/07 04:31:50;;;;;;;;;;;;;;;26.90;55.28;98430.28;2080078;28;19932;-54
2022/06/07 04:32:51;;;;;;;;;;;;;;;26.90;55.12;98433.81;2089209;28;20033;-52
2022/06/07 04:33:55;;;;;;;;;;;;;;;26.92;55.01;98433.56;2088017;28;19924;-54
2022/06/07 04:34:56;;;;;;;;;;;;;;;26.91;54.67;98431.91;2086281;28;19928;-51
2022/06/07 04:35:57;;;;;;;;;;;;;;;26.91;54.66;98423.75;2085210;28;19986;-56
2022/06/07 04:36:58;;;;;;;;;;;;;;;26.91;54.94;98435.47;2077769;28;20017;-53
2022/06/07 04:38:00;;;;;;;;;;;;;;;26.91;54.99;98431.91;2084314;28;20006;-54
2022/06/07 04:39:02;;;;;;;;;;;;;;;26.91;54.88;98424.59;2080278;28;19944;-56
2022/06/07 04:40:03;;;;;;;;;;;;;;;26.91;54.83;98431.91;2084300;28;19928;-53
2022/06/07 04:41:07;;;;;;;;;;;;;;;26.88;54.77;98427.81;2088188;28;19935;-51
2022/06/07 04:42:10;;;;;;;;;;;;;;;26.90;54.82;98433.00;2084563;28;19964;-53
2022/06/07 04:43:12;;;;;;;;;;;;;;;26.91;55.08;98429.19;2078625;28;19934;-57
2022/06/07 04:44:13;;;;;;;;;;;;;;;26.91;55.02;98423.75;2078259;28;19977;-53
2022/06/07 04:45:16;;;;;;;;;;;;;;;26.88;55.11;98427.00;2082535;28;19942;-57
2022/06/07 04:46:18;;;;;;;;;;;;;;;26.88;55.19;98427.81;2077347;28;19933;-53
2022/06/07 04:47:19;;;;;;;;;;;;;;;26.89;54.82;98431.38;2086464;28;19925;-54
2022/06/07 04:48:21;;;;;;;;;;;;;;;26.89;54.73;98432.19;2076026;28;21042;-50
2022/06/07 04:49:22;;;;;;;;;;;;;;;26.88;54.98;98433.25;2085354;28;20609;-53
2022/06/07 04:50:23;;;;;;;;;;;;;;;26.89;54.71;98436.81;2084461;28;19924;-52
2022/06/07 04:51:27;;;;;;;;;;;;;;;26.86;55.14;98432.72;2082924;28;19929;-51
2022/06/07 04:52:28;;;;;;;;;;;;;;;26.87;55.01;98430.81;2084364;28;19931;-55
2022/06/07 04:53:31;;;;;;;;;;;;;;;26.86;54.80;98424.56;2081638;28;19939;-50
2022/06/07 04:54:32;;;;;;;;;;;;;;;26.87;54.63;98430.81;2082882;28;19932;-54
2022/06/07 04:55:33;;;;;;;;;;;;;;;26.86;54.79;98419.13;2083144;28;20624;-55
2022/06/07 04:56:36;;;;;;;;;;;;;;;26.86;54.92;98430.00;2086808;28;19924;-55
2022/06/07 04:57:38;;;;;;;;;;;;;;;26.85;55.06;98427.53;2084816;28;19940;-51
2022/06/07 04:58:40;;;;;;;;;;;;;;;26.83;54.96;98430.53;2087070;28;19932;-55
2022/06/07 04:59:40;;;;;;;;;;;;;;;26.83;55.02;98424.25;2084173;28;20298;-53
2022/06/07 05:00:42;;;;;;;;;;;;;;;26.84;54.78;98434.88;2086576;28;20011;-54
2022/06/07 05:01:43;;;;;;;;;;;;;;;26.86;55.11;98437.34;2084146;28;19928;-56
2022/06/07 05:02:45;;;;;;;;;;;;;;;26.86;54.78;98440.88;2082374;28;19925;-56
2022/06/07 05:03:46;;;;;;;;;;;;;;;26.83;55.27;98446.84;2081855;28;19928;-55
2022/06/07 05:04:47;;;;;;;;;;;;;;;26.84;55.33;98442.22;2079999;28;19939;-56
2022/06/07 05:05:48;;;;;;;;;;;;;;;26.84;55.19;98442.22;2079059;28;19933;-54
2022/06/07 05:06:51;;;;;;;;;;;;;;;26.85;54.97;98444.66;2081515;28;20062;-56
2022/06/07 05:07:52;;;;;;;;;;;;;;;26.82;55.29;98441.66;2083869;28;19932;-57
2022/06/07 05:08:54;;;;;;;;;;;;;;;26.82;54.86;98450.63;2086831;28;19925;-51
2022/06/07 05:09:56;;;;;;;;;;;;;;;26.82;55.08;98453.34;2083634;28;20298;-54
2022/06/07 05:10:59;;;;;;;;;;;;;;;26.81;55.03;98457.16;2080775;28;19929;-54
2022/06/07 05:12:00;;;;;;;;;;;;;;;26.81;55.47;98456.34;2085069;28;20416;-55
2022/06/07 05:13:03;;;;;;;;;;;;;;;26.81;55.43;98456.34;2082308;28;19935;-54
2022/06/07 05:14:06;;;;;;;;;;;;;;;26.81;55.20;98451.72;2081069;28;19939;-51
2022/06/07 05:15:08;;;;;;;;;;;;;;;26.82;55.10;98456.06;2085044;28;20373;-55
2022/06/07 05:16:09;;;;;;;;;;;;;;;26.84;54.72;98459.38;2080186;28;19933;-56
2022/06/07 05:17:10;;;;;;;;;;;;;;;26.83;54.70;98446.00;2079808;28;20480;-49
2022/06/07 05:18:11;;;;;;;;;;;;;;;26.84;55.15;98453.91;2085106;28;19925;-57
2022/06/07 05:19:13;;;;;;;;;;;;;;;26.84;55.00;98451.19;2076050;28;20152;-53
2022/06/07 05:20:14;;;;;;;;;;;;;;;26.83;55.08;98452.28;2078730;28;19932;-52
2022/06/07 05:21:16;;;;;;;;;;;;;;;26.81;54.98;98449.00;2086207;28;19924;-56
2022/06/07 05:22:16;;;;;;;;;;;;;;;26.79;54.86;98451.16;2084492;28;20549;-52
2022/06/07 05:23:18;;;;;;;;;;;;;;;26.79;54.88;98453.06;2083041;28;20015;-51
2022/06/07 05:24:18;;;;;;;;;;;;;;;26.79;55.34;98456.59;2083837;28;19924;-54
2022/06/07 05:25:20;;;;;;;;;;;;;;;26.79;55.04;98451.16;2084038;28;19958;-57
2022/06/07 05:26:24;;;;;;;;;;;;;;;26.78;55.07;98449.53;2086889;28;19940;-53
2022/06/07 05:27:27;;;;;;;;;;;;;;;26.80;55.14;98450.09;2083055;28;19979;-52
2022/06/07 05:28:30;;;;;;;;;;;;;;;26.78;55.20;98457.69;2080495;28;20931;-55
2022/06/07 05:29:33;;;;;;;;;;;;;;;26.79;54.92;98448.44;2081077;28;19928;-53
2022/06/07 05:30:34;;;;;;;;;;;;;;;26.81;55.12;98454.44;2080475;28;20366;-54